sensor_id;sensor_type;location;lat;lon;timestamp;P1;durP1;ratioP1;P2;durP2;ratioP2
18776;SDS011;9517;51.174;4.160;2023-04-16T00:00:38;17.80;;;5.07;;
18776;SDS011;9517;51.174;4.160;2023-04-16T00:03:07;19.53;;;5.60;;
18776;SDS011;9517;51.174;4.160;2023-04-16T00:05:34;19.40;;;5.37;;
18776;SDS011;9517;51.174;4.160;2023-04-16T00:08:01;17.40;;;6.07;;
18776;SDS011;9517;51.174;4.160;2023-04-16T00:10:28;13.50;;;5.90;;
18776;SDS011;9517;51.174;4.160;2023-04-16T00:12:56;12.47;;;5.30;;
18776;SDS011;9517;51.174;4.160;2023-04-16T00:15:23;13.67;;;5.33;;
18776;SDS011;9517;51.174;4.160;2023-04-16T00:17:50;9.43;;;5.03;;
18776;SDS011;9517;51.174;4.160;2023-04-16T00:20:19;13.97;;;4.07;;
18776;SDS011;9517;51.174;4.160;2023-04-16T00:22:46;8.63;;;3.57;;
18776;SDS011;9517;51.174;4.160;2023-04-16T00:25:13;9.83;;;3.63;;
18776;SDS011;9517;51.174;4.160;2023-04-16T00:27:40;11.40;;;3.73;;
18776;SDS011;9517;51.174;4.160;2023-04-16T00:30:08;11.87;;;4.10;;
18776;SDS011;9517;51.174;4.160;2023-04-16T00:32:38;9.90;;;4.30;;
18776;SDS011;9517;51.174;4.160;2023-04-16T00:35:05;11.03;;;3.77;;
18776;SDS011;9517;51.174;4.160;2023-04-16T00:37:34;9.67;;;3.60;;
18776;SDS011;9517;51.174;4.160;2023-04-16T00:40:02;12.93;;;3.57;;
18776;SDS011;9517;51.174;4.160;2023-04-16T00:42:29;11.70;;;3.53;;
18776;SDS011;9517;51.174;4.160;2023-04-16T00:44:56;11.93;;;3.70;;
18776;SDS011;9517;51.174;4.160;2023-04-16T00:47:23;11.20;;;3.97;;
18776;SDS011;9517;51.174;4.160;2023-04-16T00:49:52;12.37;;;3.97;;
18776;SDS011;9517;51.174;4.160;2023-04-16T00:52:19;13.97;;;4.43;;
18776;SDS011;9517;51.174;4.160;2023-04-16T00:54:48;13.10;;;4.07;;
18776;SDS011;9517;51.174;4.160;2023-04-16T00:57:16;12.47;;;3.83;;
18776;SDS011;9517;51.174;4.160;2023-04-16T00:59:45;8.73;;;3.33;;
18776;SDS011;9517;51.174;4.160;2023-04-16T01:02:12;12.63;;;3.60;;
18776;SDS011;9517;51.174;4.160;2023-04-16T01:04:39;10.33;;;3.10;;
18776;SDS011;9517;51.174;4.160;2023-04-16T01:07:07;12.73;;;3.00;;
18776;SDS011;9517;51.174;4.160;2023-04-16T01:09:34;9.53;;;2.80;;
18776;SDS011;9517;51.174;4.160;2023-04-16T01:12:02;10.43;;;3.40;;
18776;SDS011;9517;51.174;4.160;2023-04-16T01:14:30;9.00;;;2.90;;
18776;SDS011;9517;51.174;4.160;2023-04-16T01:17:00;10.93;;;3.13;;
18776;SDS011;9517;51.174;4.160;2023-04-16T01:19:27;16.27;;;4.10;;
18776;SDS011;9517;51.174;4.160;2023-04-16T01:21:56;11.23;;;4.00;;
18776;SDS011;9517;51.174;4.160;2023-04-16T01:24:24;12.43;;;4.23;;
18776;SDS011;9517;51.174;4.160;2023-04-16T01:26:51;12.53;;;3.73;;
18776;SDS011;9517;51.174;4.160;2023-04-16T01:29:18;11.57;;;4.60;;
18776;SDS011;9517;51.174;4.160;2023-04-16T01:31:45;10.23;;;3.57;;
18776;SDS011;9517;51.174;4.160;2023-04-16T01:34:12;12.27;;;4.20;;
18776;SDS011;9517;51.174;4.160;2023-04-16T01:36:39;13.87;;;4.27;;
18776;SDS011;9517;51.174;4.160;2023-04-16T01:39:08;10.40;;;4.50;;
18776;SDS011;9517;51.174;4.160;2023-04-16T01:41:38;12.37;;;5.17;;
18776;SDS011;9517;51.174;4.160;2023-04-16T01:44:05;12.87;;;5.03;;
18776;SDS011;9517;51.174;4.160;2023-04-16T01:46:32;16.23;;;5.40;;
18776;SDS011;9517;51.174;4.160;2023-04-16T01:49:01;13.00;;;5.80;;
18776;SDS011;9517;51.174;4.160;2023-04-16T01:51:29;13.73;;;4.90;;
18776;SDS011;9517;51.174;4.160;2023-04-16T01:53:56;10.67;;;4.30;;
18776;SDS011;9517;51.174;4.160;2023-04-16T01:56:25;11.77;;;4.30;;
18776;SDS011;9517;51.174;4.160;2023-04-16T01:58:52;13.77;;;4.90;;
18776;SDS011;9517;51.174;4.160;2023-04-16T02:01:19;15.50;;;5.00;;
18776;SDS011;9517;51.174;4.160;2023-04-16T02:03:47;14.23;;;5.00;;
18776;SDS011;9517;51.174;4.160;2023-04-16T02:06:14;12.73;;;4.23;;
18776;SDS011;9517;51.174;4.160;2023-04-16T02:08:41;13.73;;;4.13;;
18776;SDS011;9517;51.174;4.160;2023-04-16T02:11:08;13.57;;;3.67;;
18776;SDS011;9517;51.174;4.160;2023-04-16T02:13:37;13.27;;;3.67;;
18776;SDS011;9517;51.174;4.160;2023-04-16T02:16:04;12.80;;;3.40;;
18776;SDS011;9517;51.174;4.160;2023-04-16T02:18:31;12.27;;;3.40;;
18776;SDS011;9517;51.174;4.160;2023-04-16T02:20:58;14.10;;;3.87;;
18776;SDS011;9517;51.174;4.160;2023-04-16T02:23:26;16.43;;;3.90;;
18776;SDS011;9517;51.174;4.160;2023-04-16T02:25:53;11.80;;;3.67;;
18776;SDS011;9517;51.174;4.160;2023-04-16T02:28:20;14.20;;;4.00;;
18776;SDS011;9517;51.174;4.160;2023-04-16T02:30:50;12.63;;;3.60;;
18776;SDS011;9517;51.174;4.160;2023-04-16T02:33:17;14.53;;;3.13;;
18776;SDS011;9517;51.174;4.160;2023-04-16T02:35:44;13.80;;;2.93;;
18776;SDS011;9517;51.174;4.160;2023-04-16T02:38:12;11.37;;;2.50;;
18776;SDS011;9517;51.174;4.160;2023-04-16T02:40:40;14.37;;;3.10;;
18776;SDS011;9517;51.174;4.160;2023-04-16T02:43:08;11.93;;;2.40;;
18776;SDS011;9517;51.174;4.160;2023-04-16T02:45:35;7.43;;;2.30;;
18776;SDS011;9517;51.174;4.160;2023-04-16T02:48:03;13.00;;;2.73;;
18776;SDS011;9517;51.174;4.160;2023-04-16T02:50:33;16.17;;;3.00;;
18776;SDS011;9517;51.174;4.160;2023-04-16T02:53:00;10.53;;;2.33;;
18776;SDS011;9517;51.174;4.160;2023-04-16T02:55:27;11.27;;;2.80;;
18776;SDS011;9517;51.174;4.160;2023-04-16T02:57:54;6.90;;;2.43;;
18776;SDS011;9517;51.174;4.160;2023-04-16T03:00:21;12.33;;;2.83;;
18776;SDS011;9517;51.174;4.160;2023-04-16T03:02:49;13.23;;;2.80;;
18776;SDS011;9517;51.174;4.160;2023-04-16T03:05:17;8.17;;;2.40;;
18776;SDS011;9517;51.174;4.160;2023-04-16T03:07:45;9.80;;;2.77;;
18776;SDS011;9517;51.174;4.160;2023-04-16T03:10:14;11.80;;;3.10;;
18776;SDS011;9517;51.174;4.160;2023-04-16T03:12:42;8.33;;;2.87;;
18776;SDS011;9517;51.174;4.160;2023-04-16T03:15:09;8.13;;;2.73;;
18776;SDS011;9517;51.174;4.160;2023-04-16T03:17:36;14.83;;;3.00;;
18776;SDS011;9517;51.174;4.160;2023-04-16T03:20:04;10.13;;;3.13;;
18776;SDS011;9517;51.174;4.160;2023-04-16T03:22:34;15.00;;;3.90;;
18776;SDS011;9517;51.174;4.160;2023-04-16T03:25:01;14.17;;;3.60;;
18776;SDS011;9517;51.174;4.160;2023-04-16T03:27:29;14.30;;;4.23;;
18776;SDS011;9517;51.174;4.160;2023-04-16T03:29:57;11.47;;;4.20;;
18776;SDS011;9517;51.174;4.160;2023-04-16T03:32:25;14.00;;;5.00;;
18776;SDS011;9517;51.174;4.160;2023-04-16T03:34:52;13.17;;;4.73;;
18776;SDS011;9517;51.174;4.160;2023-04-16T03:37:19;13.93;;;4.50;;
18776;SDS011;9517;51.174;4.160;2023-04-16T03:39:48;11.30;;;4.20;;
18776;SDS011;9517;51.174;4.160;2023-04-16T03:42:15;11.87;;;4.40;;
18776;SDS011;9517;51.174;4.160;2023-04-16T03:44:43;11.37;;;3.90;;
18776;SDS011;9517;51.174;4.160;2023-04-16T03:47:10;12.20;;;3.43;;
18776;SDS011;9517;51.174;4.160;2023-04-16T03:49:37;11.57;;;3.93;;
18776;SDS011;9517;51.174;4.160;2023-04-16T03:52:04;16.13;;;3.47;;
18776;SDS011;9517;51.174;4.160;2023-04-16T03:54:31;9.37;;;2.30;;
18776;SDS011;9517;51.174;4.160;2023-04-16T03:57:00;17.80;;;3.40;;
18776;SDS011;9517;51.174;4.160;2023-04-16T03:59:27;11.73;;;2.07;;
18776;SDS011;9517;51.174;4.160;2023-04-16T04:01:54;10.87;;;2.37;;
18776;SDS011;9517;51.174;4.160;2023-04-16T04:04:22;15.57;;;2.30;;
18776;SDS011;9517;51.174;4.160;2023-04-16T04:06:49;10.80;;;2.17;;
18776;SDS011;9517;51.174;4.160;2023-04-16T04:09:16;16.73;;;2.40;;
18776;SDS011;9517;51.174;4.160;2023-04-16T04:11:43;11.20;;;2.37;;
18776;SDS011;9517;51.174;4.160;2023-04-16T04:14:12;8.10;;;2.13;;
18776;SDS011;9517;51.174;4.160;2023-04-16T04:16:39;7.70;;;1.83;;
18776;SDS011;9517;51.174;4.160;2023-04-16T04:19:06;12.30;;;2.60;;
18776;SDS011;9517;51.174;4.160;2023-04-16T04:21:34;8.00;;;2.07;;
18776;SDS011;9517;51.174;4.160;2023-04-16T04:24:01;11.13;;;2.00;;
18776;SDS011;9517;51.174;4.160;2023-04-16T04:26:28;9.13;;;2.20;;
18776;SDS011;9517;51.174;4.160;2023-04-16T04:28:55;12.80;;;2.20;;
18776;SDS011;9517;51.174;4.160;2023-04-16T04:31:24;12.67;;;2.17;;
18776;SDS011;9517;51.174;4.160;2023-04-16T04:33:51;15.73;;;2.10;;
18776;SDS011;9517;51.174;4.160;2023-04-16T04:36:18;11.33;;;2.70;;
18776;SDS011;9517;51.174;4.160;2023-04-16T04:38:45;12.17;;;2.53;;
18776;SDS011;9517;51.174;4.160;2023-04-16T04:41:12;9.13;;;2.20;;
18776;SDS011;9517;51.174;4.160;2023-04-16T04:43:39;8.70;;;2.30;;
18776;SDS011;9517;51.174;4.160;2023-04-16T04:46:07;11.27;;;2.87;;
18776;SDS011;9517;51.174;4.160;2023-04-16T04:48:35;13.10;;;2.50;;
18776;SDS011;9517;51.174;4.160;2023-04-16T04:51:02;10.33;;;2.10;;
18776;SDS011;9517;51.174;4.160;2023-04-16T04:53:30;10.10;;;2.33;;
18776;SDS011;9517;51.174;4.160;2023-04-16T04:55:57;9.00;;;2.23;;
18776;SDS011;9517;51.174;4.160;2023-04-16T04:58:25;9.77;;;2.60;;
18776;SDS011;9517;51.174;4.160;2023-04-16T05:00:52;10.13;;;2.37;;
18776;SDS011;9517;51.174;4.160;2023-04-16T05:03:20;12.03;;;2.30;;
18776;SDS011;9517;51.174;4.160;2023-04-16T05:05:48;12.17;;;2.50;;
18776;SDS011;9517;51.174;4.160;2023-04-16T05:08:15;13.30;;;2.77;;
18776;SDS011;9517;51.174;4.160;2023-04-16T05:10:42;6.90;;;2.23;;
18776;SDS011;9517;51.174;4.160;2023-04-16T05:13:09;14.63;;;2.77;;
18776;SDS011;9517;51.174;4.160;2023-04-16T05:15:37;12.60;;;2.73;;
18776;SDS011;9517;51.174;4.160;2023-04-16T05:18:05;9.27;;;2.47;;
18776;SDS011;9517;51.174;4.160;2023-04-16T05:20:32;12.03;;;2.90;;
18776;SDS011;9517;51.174;4.160;2023-04-16T05:23:02;12.43;;;2.93;;
18776;SDS011;9517;51.174;4.160;2023-04-16T05:25:29;11.67;;;2.90;;
18776;SDS011;9517;51.174;4.160;2023-04-16T05:27:56;10.20;;;2.87;;
18776;SDS011;9517;51.174;4.160;2023-04-16T05:30:23;11.30;;;2.90;;
18776;SDS011;9517;51.174;4.160;2023-04-16T05:32:50;8.67;;;2.70;;
18776;SDS011;9517;51.174;4.160;2023-04-16T05:35:18;11.87;;;3.20;;
18776;SDS011;9517;51.174;4.160;2023-04-16T05:37:45;9.80;;;2.70;;
18776;SDS011;9517;51.174;4.160;2023-04-16T05:40:13;13.17;;;3.10;;
18776;SDS011;9517;51.174;4.160;2023-04-16T05:42:41;10.73;;;2.90;;
18776;SDS011;9517;51.174;4.160;2023-04-16T05:45:08;9.20;;;3.40;;
18776;SDS011;9517;51.174;4.160;2023-04-16T05:47:36;10.63;;;3.20;;
18776;SDS011;9517;51.174;4.160;2023-04-16T05:50:03;8.10;;;3.00;;
18776;SDS011;9517;51.174;4.160;2023-04-16T05:52:31;12.57;;;4.07;;
18776;SDS011;9517;51.174;4.160;2023-04-16T05:54:58;13.20;;;4.23;;
18776;SDS011;9517;51.174;4.160;2023-04-16T05:57:27;13.60;;;4.17;;
18776;SDS011;9517;51.174;4.160;2023-04-16T05:59:54;13.53;;;4.30;;
18776;SDS011;9517;51.174;4.160;2023-04-16T06:02:21;15.47;;;4.70;;
18776;SDS011;9517;51.174;4.160;2023-04-16T06:04:48;14.70;;;4.93;;
18776;SDS011;9517;51.174;4.160;2023-04-16T06:07:15;11.77;;;4.10;;
18776;SDS011;9517;51.174;4.160;2023-04-16T06:09:43;15.60;;;4.07;;
18776;SDS011;9517;51.174;4.160;2023-04-16T06:12:10;12.13;;;4.33;;
18776;SDS011;9517;51.174;4.160;2023-04-16T06:14:39;11.07;;;3.97;;
18776;SDS011;9517;51.174;4.160;2023-04-16T06:17:06;11.23;;;3.63;;
18776;SDS011;9517;51.174;4.160;2023-04-16T06:19:33;13.70;;;4.13;;
18776;SDS011;9517;51.174;4.160;2023-04-16T06:22:00;13.23;;;3.97;;
18776;SDS011;9517;51.174;4.160;2023-04-16T06:24:28;11.47;;;3.90;;
18776;SDS011;9517;51.174;4.160;2023-04-16T06:26:55;10.53;;;3.87;;
18776;SDS011;9517;51.174;4.160;2023-04-16T06:29:26;13.37;;;4.33;;
18776;SDS011;9517;51.174;4.160;2023-04-16T06:31:55;14.97;;;4.40;;
18776;SDS011;9517;51.174;4.160;2023-04-16T06:34:22;19.73;;;5.13;;
18776;SDS011;9517;51.174;4.160;2023-04-16T06:36:49;16.50;;;5.10;;
18776;SDS011;9517;51.174;4.160;2023-04-16T06:39:16;15.67;;;5.00;;
18776;SDS011;9517;51.174;4.160;2023-04-16T06:41:45;18.50;;;6.17;;
18776;SDS011;9517;51.174;4.160;2023-04-16T06:44:13;20.57;;;6.40;;
18776;SDS011;9517;51.174;4.160;2023-04-16T06:46:40;25.73;;;6.33;;
18776;SDS011;9517;51.174;4.160;2023-04-16T06:49:08;19.70;;;6.37;;
18776;SDS011;9517;51.174;4.160;2023-04-16T06:51:36;18.17;;;6.33;;
18776;SDS011;9517;51.174;4.160;2023-04-16T06:54:03;15.80;;;6.53;;
18776;SDS011;9517;51.174;4.160;2023-04-16T06:56:30;20.67;;;6.30;;
18776;SDS011;9517;51.174;4.160;2023-04-16T06:58:57;21.13;;;6.90;;
18776;SDS011;9517;51.174;4.160;2023-04-16T07:01:25;23.13;;;7.00;;
18776;SDS011;9517;51.174;4.160;2023-04-16T07:03:52;21.30;;;7.33;;
18776;SDS011;9517;51.174;4.160;2023-04-16T07:06:21;26.23;;;7.83;;
18776;SDS011;9517;51.174;4.160;2023-04-16T07:08:48;24.07;;;8.17;;
18776;SDS011;9517;51.174;4.160;2023-04-16T07:11:15;20.80;;;7.50;;
18776;SDS011;9517;51.174;4.160;2023-04-16T07:13:43;18.70;;;7.50;;
18776;SDS011;9517;51.174;4.160;2023-04-16T07:16:10;22.80;;;7.40;;
18776;SDS011;9517;51.174;4.160;2023-04-16T07:18:37;21.97;;;6.40;;
18776;SDS011;9517;51.174;4.160;2023-04-16T07:21:05;18.93;;;7.00;;
18776;SDS011;9517;51.174;4.160;2023-04-16T07:23:33;14.10;;;4.73;;
18776;SDS011;9517;51.174;4.160;2023-04-16T07:26:00;20.93;;;7.30;;
18776;SDS011;9517;51.174;4.160;2023-04-16T07:28:27;18.40;;;6.90;;
18776;SDS011;9517;51.174;4.160;2023-04-16T07:30:54;19.93;;;7.23;;
18776;SDS011;9517;51.174;4.160;2023-04-16T07:33:21;23.17;;;6.33;;
18776;SDS011;9517;51.174;4.160;2023-04-16T07:35:49;18.70;;;6.57;;
18776;SDS011;9517;51.174;4.160;2023-04-16T07:38:16;23.10;;;7.03;;
18776;SDS011;9517;51.174;4.160;2023-04-16T07:40:45;14.10;;;5.77;;
18776;SDS011;9517;51.174;4.160;2023-04-16T07:43:12;19.87;;;7.10;;
18776;SDS011;9517;51.174;4.160;2023-04-16T07:45:40;23.97;;;7.60;;
18776;SDS011;9517;51.174;4.160;2023-04-16T07:48:07;17.70;;;7.93;;
18776;SDS011;9517;51.174;4.160;2023-04-16T07:50:34;22.70;;;8.10;;
18776;SDS011;9517;51.174;4.160;2023-04-16T07:53:01;18.73;;;7.47;;
18776;SDS011;9517;51.174;4.160;2023-04-16T07:55:31;21.33;;;8.50;;
18776;SDS011;9517;51.174;4.160;2023-04-16T07:58:00;18.07;;;7.43;;
18776;SDS011;9517;51.174;4.160;2023-04-16T08:00:27;20.53;;;6.90;;
18776;SDS011;9517;51.174;4.160;2023-04-16T08:02:54;18.73;;;7.20;;
18776;SDS011;9517;51.174;4.160;2023-04-16T08:05:22;23.73;;;8.17;;
18776;SDS011;9517;51.174;4.160;2023-04-16T08:07:49;22.23;;;7.23;;
18776;SDS011;9517;51.174;4.160;2023-04-16T08:10:16;16.93;;;7.33;;
18776;SDS011;9517;51.174;4.160;2023-04-16T08:12:43;21.13;;;7.03;;
18776;SDS011;9517;51.174;4.160;2023-04-16T08:15:12;15.80;;;7.27;;
18776;SDS011;9517;51.174;4.160;2023-04-16T08:17:39;18.53;;;7.10;;
18776;SDS011;9517;51.174;4.160;2023-04-16T08:20:06;15.83;;;6.73;;
18776;SDS011;9517;51.174;4.160;2023-04-16T08:22:34;17.83;;;6.27;;
18776;SDS011;9517;51.174;4.160;2023-04-16T08:25:01;17.80;;;6.60;;
18776;SDS011;9517;51.174;4.160;2023-04-16T08:27:29;18.57;;;6.40;;
18776;SDS011;9517;51.174;4.160;2023-04-16T08:29:56;19.90;;;6.30;;
18776;SDS011;9517;51.174;4.160;2023-04-16T08:32:25;15.00;;;5.87;;
18776;SDS011;9517;51.174;4.160;2023-04-16T08:34:52;15.43;;;5.83;;
18776;SDS011;9517;51.174;4.160;2023-04-16T08:37:19;18.27;;;5.47;;
18776;SDS011;9517;51.174;4.160;2023-04-16T08:39:46;17.27;;;5.97;;
18776;SDS011;9517;51.174;4.160;2023-04-16T08:42:17;22.17;;;6.97;;
18776;SDS011;9517;51.174;4.160;2023-04-16T08:44:49;17.73;;;5.63;;
18776;SDS011;9517;51.174;4.160;2023-04-16T08:47:21;15.50;;;5.87;;
18776;SDS011;9517;51.174;4.160;2023-04-16T08:49:51;12.97;;;5.80;;
18776;SDS011;9517;51.174;4.160;2023-04-16T08:52:21;20.13;;;6.50;;
18776;SDS011;9517;51.174;4.160;2023-04-16T08:54:51;18.20;;;7.10;;
18776;SDS011;9517;51.174;4.160;2023-04-16T08:57:26;15.67;;;5.67;;
18776;SDS011;9517;51.174;4.160;2023-04-16T09:00:04;15.57;;;5.27;;
18776;SDS011;9517;51.174;4.160;2023-04-16T09:02:33;17.33;;;5.93;;
18776;SDS011;9517;51.174;4.160;2023-04-16T09:05:03;15.43;;;5.77;;
18776;SDS011;9517;51.174;4.160;2023-04-16T09:07:32;14.83;;;5.40;;
18776;SDS011;9517;51.174;4.160;2023-04-16T09:10:00;17.43;;;5.73;;
18776;SDS011;9517;51.174;4.160;2023-04-16T09:12:28;18.23;;;5.10;;
18776;SDS011;9517;51.174;4.160;2023-04-16T09:14:56;16.10;;;5.40;;
18776;SDS011;9517;51.174;4.160;2023-04-16T09:17:26;15.67;;;5.50;;
18776;SDS011;9517;51.174;4.160;2023-04-16T09:19:54;17.50;;;5.33;;
18776;SDS011;9517;51.174;4.160;2023-04-16T09:22:22;14.83;;;5.37;;
18776;SDS011;9517;51.174;4.160;2023-04-16T09:24:49;14.60;;;5.97;;
18776;SDS011;9517;51.174;4.160;2023-04-16T09:27:16;15.87;;;5.57;;
18776;SDS011;9517;51.174;4.160;2023-04-16T09:29:43;19.07;;;5.57;;
18776;SDS011;9517;51.174;4.160;2023-04-16T09:32:10;17.73;;;6.20;;
18776;SDS011;9517;51.174;4.160;2023-04-16T09:37:28;17.83;;;6.00;;
18776;SDS011;9517;51.174;4.160;2023-04-16T09:39:56;18.33;;;6.53;;
18776;SDS011;9517;51.174;4.160;2023-04-16T09:42:26;17.83;;;5.77;;
18776;SDS011;9517;51.174;4.160;2023-04-16T09:44:55;19.77;;;6.40;;
18776;SDS011;9517;51.174;4.160;2023-04-16T09:47:23;20.90;;;6.97;;
18776;SDS011;9517;51.174;4.160;2023-04-16T09:49:51;21.07;;;7.87;;
18776;SDS011;9517;51.174;4.160;2023-04-16T09:52:19;21.70;;;7.70;;
18776;SDS011;9517;51.174;4.160;2023-04-16T09:54:50;19.10;;;7.07;;
18776;SDS011;9517;51.174;4.160;2023-04-16T09:57:18;19.27;;;5.27;;
18776;SDS011;9517;51.174;4.160;2023-04-16T09:59:48;18.83;;;5.53;;
18776;SDS011;9517;51.174;4.160;2023-04-16T10:02:18;16.37;;;3.80;;
18776;SDS011;9517;51.174;4.160;2023-04-16T10:04:47;16.20;;;5.37;;
18776;SDS011;9517;51.174;4.160;2023-04-16T10:07:15;13.03;;;5.63;;
18776;SDS011;9517;51.174;4.160;2023-04-16T10:09:43;18.37;;;6.40;;
18776;SDS011;9517;51.174;4.160;2023-04-16T10:12:12;20.20;;;7.40;;
18776;SDS011;9517;51.174;4.160;2023-04-16T10:14:39;20.80;;;7.77;;
18776;SDS011;9517;51.174;4.160;2023-04-16T10:17:07;19.50;;;7.87;;
18776;SDS011;9517;51.174;4.160;2023-04-16T10:19:35;19.67;;;6.90;;
18776;SDS011;9517;51.174;4.160;2023-04-16T10:22:02;18.70;;;6.90;;
18776;SDS011;9517;51.174;4.160;2023-04-16T10:24:30;14.50;;;5.83;;
18776;SDS011;9517;51.174;4.160;2023-04-16T10:26:58;18.83;;;6.53;;
18776;SDS011;9517;51.174;4.160;2023-04-16T10:29:28;18.53;;;6.20;;
18776;SDS011;9517;51.174;4.160;2023-04-16T10:31:55;13.53;;;5.23;;
18776;SDS011;9517;51.174;4.160;2023-04-16T10:34:23;18.83;;;6.57;;
18776;SDS011;9517;51.174;4.160;2023-04-16T10:36:52;17.10;;;7.13;;
18776;SDS011;9517;51.174;4.160;2023-04-16T10:39:20;18.73;;;7.93;;
18776;SDS011;9517;51.174;4.160;2023-04-16T10:41:48;22.03;;;6.93;;
18776;SDS011;9517;51.174;4.160;2023-04-16T10:44:16;18.63;;;7.30;;
18776;SDS011;9517;51.174;4.160;2023-04-16T10:46:46;19.73;;;7.63;;
18776;SDS011;9517;51.174;4.160;2023-04-16T10:49:15;18.50;;;6.33;;
18776;SDS011;9517;51.174;4.160;2023-04-16T10:51:51;22.00;;;7.53;;
18776;SDS011;9517;51.174;4.160;2023-04-16T10:54:20;18.43;;;7.37;;
18776;SDS011;9517;51.174;4.160;2023-04-16T10:56:50;24.83;;;7.57;;
18776;SDS011;9517;51.174;4.160;2023-04-16T10:59:18;16.43;;;6.57;;
18776;SDS011;9517;51.174;4.160;2023-04-16T11:01:48;14.13;;;6.03;;
18776;SDS011;9517;51.174;4.160;2023-04-16T11:04:26;17.87;;;6.87;;
18776;SDS011;9517;51.174;4.160;2023-04-16T11:07:02;19.40;;;7.23;;
18776;SDS011;9517;51.174;4.160;2023-04-16T11:09:43;16.60;;;8.00;;
18776;SDS011;9517;51.174;4.160;2023-04-16T11:12:11;20.20;;;8.57;;
18776;SDS011;9517;51.174;4.160;2023-04-16T11:14:40;18.53;;;8.00;;
18776;SDS011;9517;51.174;4.160;2023-04-16T11:17:09;21.23;;;7.40;;
18776;SDS011;9517;51.174;4.160;2023-04-16T11:19:36;19.23;;;7.77;;
18776;SDS011;9517;51.174;4.160;2023-04-16T11:22:03;22.70;;;7.40;;
18776;SDS011;9517;51.174;4.160;2023-04-16T11:24:30;18.40;;;5.80;;
18776;SDS011;9517;51.174;4.160;2023-04-16T11:26:58;19.20;;;7.77;;
18776;SDS011;9517;51.174;4.160;2023-04-16T11:29:25;18.17;;;6.57;;
18776;SDS011;9517;51.174;4.160;2023-04-16T11:31:53;16.30;;;5.80;;
18776;SDS011;9517;51.174;4.160;2023-04-16T11:34:21;14.80;;;5.43;;
18776;SDS011;9517;51.174;4.160;2023-04-16T11:36:49;14.33;;;5.53;;
18776;SDS011;9517;51.174;4.160;2023-04-16T11:39:17;16.13;;;6.13;;
18776;SDS011;9517;51.174;4.160;2023-04-16T11:41:44;19.63;;;6.77;;
18776;SDS011;9517;51.174;4.160;2023-04-16T11:44:16;13.60;;;5.70;;
18776;SDS011;9517;51.174;4.160;2023-04-16T11:46:44;14.30;;;5.90;;
18776;SDS011;9517;51.174;4.160;2023-04-16T11:49:11;16.03;;;6.23;;
18776;SDS011;9517;51.174;4.160;2023-04-16T11:51:41;18.17;;;7.23;;
18776;SDS011;9517;51.174;4.160;2023-04-16T11:54:09;17.20;;;6.97;;
18776;SDS011;9517;51.174;4.160;2023-04-16T11:56:44;22.80;;;6.17;;
18776;SDS011;9517;51.174;4.160;2023-04-16T11:59:13;17.40;;;5.73;;
18776;SDS011;9517;51.174;4.160;2023-04-16T12:01:44;18.67;;;5.80;;
18776;SDS011;9517;51.174;4.160;2023-04-16T12:04:12;14.93;;;6.03;;
18776;SDS011;9517;51.174;4.160;2023-04-16T12:06:48;21.47;;;6.83;;
18776;SDS011;9517;51.174;4.160;2023-04-16T12:09:35;17.83;;;6.00;;
18776;SDS011;9517;51.174;4.160;2023-04-16T12:12:03;18.17;;;6.17;;
18776;SDS011;9517;51.174;4.160;2023-04-16T12:14:31;16.57;;;6.47;;
18776;SDS011;9517;51.174;4.160;2023-04-16T12:19:49;15.33;;;6.60;;
18776;SDS011;9517;51.174;4.160;2023-04-16T12:22:18;22.03;;;6.93;;
18776;SDS011;9517;51.174;4.160;2023-04-16T12:24:54;15.43;;;5.43;;
18776;SDS011;9517;51.174;4.160;2023-04-16T12:27:23;17.40;;;6.17;;
18776;SDS011;9517;51.174;4.160;2023-04-16T12:30:05;17.57;;;5.33;;
18776;SDS011;9517;51.174;4.160;2023-04-16T12:32:33;16.10;;;5.00;;
18776;SDS011;9517;51.174;4.160;2023-04-16T12:35:00;17.53;;;4.90;;
18776;SDS011;9517;51.174;4.160;2023-04-16T12:37:29;19.43;;;4.90;;
18776;SDS011;9517;51.174;4.160;2023-04-16T12:39:56;15.13;;;4.20;;
18776;SDS011;9517;51.174;4.160;2023-04-16T12:42:23;12.87;;;4.33;;
18776;SDS011;9517;51.174;4.160;2023-04-16T12:44:51;13.57;;;4.60;;
18776;SDS011;9517;51.174;4.160;2023-04-16T12:47:18;17.30;;;4.97;;
18776;SDS011;9517;51.174;4.160;2023-04-16T12:49:45;15.50;;;4.47;;
18776;SDS011;9517;51.174;4.160;2023-04-16T12:52:12;14.87;;;4.87;;
18776;SDS011;9517;51.174;4.160;2023-04-16T12:54:41;16.07;;;5.20;;
18776;SDS011;9517;51.174;4.160;2023-04-16T12:57:08;12.03;;;4.30;;
18776;SDS011;9517;51.174;4.160;2023-04-16T12:59:36;15.60;;;5.00;;
18776;SDS011;9517;51.174;4.160;2023-04-16T13:02:03;16.53;;;5.37;;
18776;SDS011;9517;51.174;4.160;2023-04-16T13:04:30;15.40;;;6.20;;
18776;SDS011;9517;51.174;4.160;2023-04-16T13:06:57;16.53;;;5.57;;
18776;SDS011;9517;51.174;4.160;2023-04-16T13:09:24;12.60;;;5.00;;
18776;SDS011;9517;51.174;4.160;2023-04-16T13:11:54;15.37;;;4.90;;
18776;SDS011;9517;51.174;4.160;2023-04-16T13:14:21;18.00;;;5.73;;
18776;SDS011;9517;51.174;4.160;2023-04-16T13:16:48;17.57;;;5.00;;
18776;SDS011;9517;51.174;4.160;2023-04-16T13:19:15;12.17;;;5.00;;
18776;SDS011;9517;51.174;4.160;2023-04-16T13:21:43;15.60;;;5.63;;
18776;SDS011;9517;51.174;4.160;2023-04-16T13:24:10;17.20;;;6.17;;
18776;SDS011;9517;51.174;4.160;2023-04-16T13:26:37;20.77;;;5.77;;
18776;SDS011;9517;51.174;4.160;2023-04-16T13:29:05;16.33;;;6.03;;
18776;SDS011;9517;51.174;4.160;2023-04-16T13:31:32;15.30;;;6.30;;
18776;SDS011;9517;51.174;4.160;2023-04-16T13:34:00;14.93;;;5.90;;
18776;SDS011;9517;51.174;4.160;2023-04-16T13:36:27;17.17;;;5.50;;
18776;SDS011;9517;51.174;4.160;2023-04-16T13:38:56;14.03;;;5.07;;
18776;SDS011;9517;51.174;4.160;2023-04-16T13:41:23;15.87;;;5.57;;
18776;SDS011;9517;51.174;4.160;2023-04-16T13:43:52;15.70;;;5.67;;
18776;SDS011;9517;51.174;4.160;2023-04-16T13:46:20;15.47;;;5.23;;
18776;SDS011;9517;51.174;4.160;2023-04-16T13:48:48;16.33;;;5.13;;
18776;SDS011;9517;51.174;4.160;2023-04-16T13:51:15;15.07;;;5.73;;
18776;SDS011;9517;51.174;4.160;2023-04-16T13:53:42;16.93;;;6.60;;
18776;SDS011;9517;51.174;4.160;2023-04-16T13:56:09;12.57;;;5.70;;
18776;SDS011;9517;51.174;4.160;2023-04-16T13:58:36;16.13;;;5.80;;
18776;SDS011;9517;51.174;4.160;2023-04-16T14:01:03;15.33;;;5.70;;
18776;SDS011;9517;51.174;4.160;2023-04-16T14:03:32;17.27;;;5.83;;
18776;SDS011;9517;51.174;4.160;2023-04-16T14:06:01;11.67;;;4.90;;
18776;SDS011;9517;51.174;4.160;2023-04-16T14:08:28;12.97;;;6.13;;
18776;SDS011;9517;51.174;4.160;2023-04-16T14:10:56;19.83;;;6.50;;
18776;SDS011;9517;51.174;4.160;2023-04-16T14:13:23;17.60;;;6.50;;
18776;SDS011;9517;51.174;4.160;2023-04-16T14:15:52;15.07;;;5.97;;
18776;SDS011;9517;51.174;4.160;2023-04-16T14:18:19;16.07;;;6.03;;
18776;SDS011;9517;51.174;4.160;2023-04-16T14:20:48;18.27;;;5.80;;
18776;SDS011;9517;51.174;4.160;2023-04-16T14:23:15;13.10;;;5.33;;
18776;SDS011;9517;51.174;4.160;2023-04-16T14:25:42;17.20;;;5.00;;
18776;SDS011;9517;51.174;4.160;2023-04-16T14:28:09;17.83;;;5.93;;
18776;SDS011;9517;51.174;4.160;2023-04-16T14:30:36;16.33;;;5.80;;
18776;SDS011;9517;51.174;4.160;2023-04-16T14:33:03;13.57;;;5.80;;
18776;SDS011;9517;51.174;4.160;2023-04-16T14:35:31;12.87;;;5.50;;
18776;SDS011;9517;51.174;4.160;2023-04-16T14:38:00;13.00;;;5.57;;
18776;SDS011;9517;51.174;4.160;2023-04-16T14:40:28;14.63;;;5.63;;
18776;SDS011;9517;51.174;4.160;2023-04-16T14:42:55;14.70;;;6.33;;
18776;SDS011;9517;51.174;4.160;2023-04-16T14:45:22;15.27;;;6.23;;
18776;SDS011;9517;51.174;4.160;2023-04-16T14:47:52;12.83;;;5.47;;
18776;SDS011;9517;51.174;4.160;2023-04-16T14:50:20;19.47;;;6.50;;
18776;SDS011;9517;51.174;4.160;2023-04-16T14:52:47;12.43;;;5.73;;
18776;SDS011;9517;51.174;4.160;2023-04-16T14:55:17;12.40;;;5.20;;
18776;SDS011;9517;51.174;4.160;2023-04-16T14:57:44;14.83;;;6.63;;